sensor_id;sensor_type;location;lat;lon;timestamp;pressure;altitude;pressure_sealevel;temperature;humidity
20115;BME280;10218;42.874;25.320;2023-02-10T00:01:20;99337.75;;;-10.28;100.00
20115;BME280;10218;42.874;25.320;2023-02-10T00:03:48;99338.66;;;-10.19;100.00
20115;BME280;10218;42.874;25.320;2023-02-10T00:06:17;99324.84;;;-10.22;100.00
20115;BME280;10218;42.874;25.320;2023-02-10T00:08:47;99333.47;;;-10.19;100.00
20115;BME280;10218;42.874;25.320;2023-02-10T00:11:16;99330.75;;;-10.46;100.00
20115;BME280;10218;42.874;25.320;2023-02-10T00:13:45;99331.75;;;-10.23;100.00
20115;BME280;10218;42.874;25.320;2023-02-10T00:16:14;99340.31;;;-10.33;100.00
20115;BME280;10218;42.874;25.320;2023-02-10T00:18:42;99340.31;;;-10.36;100.00
20115;BME280;10218;42.874;25.320;2023-02-10T00:21:14;99346.22;;;-10.57;100.00
20115;BME280;10218;42.874;25.320;2023-02-10T00:23:43;99337.47;;;-10.74;100.00
20115;BME280;10218;42.874;25.320;2023-02-10T00:26:12;99322.03;;;-10.65;100.00
20115;BME280;10218;42.874;25.320;2023-02-10T00:28:41;99316.94;;;-10.57;100.00
20115;BME280;10218;42.874;25.320;2023-02-10T00:31:11;99315.34;;;-10.25;100.00
20115;BME280;10218;42.874;25.320;2023-02-10T00:33:40;99304.19;;;-10.21;100.00
20115;BME280;10218;42.874;25.320;2023-02-10T00:36:11;99314.50;;;-10.15;100.00
20115;BME280;10218;42.874;25.320;2023-02-10T00:38:40;99313.69;;;-10.06;100.00
20115;BME280;10218;42.874;25.320;2023-02-10T00:41:16;99303.22;;;-10.40;100.00
20115;BME280;10218;42.874;25.320;2023-02-10T00:43:45;99301.56;;;-10.31;100.00
20115;BME280;10218;42.874;25.320;2023-02-10T00:46:13;99295.50;;;-10.38;100.00
20115;BME280;10218;42.874;25.320;2023-02-10T00:48:43;99297.22;;;-10.34;100.00
20115;BME280;10218;42.874;25.320;2023-02-10T00:51:11;99283.47;;;-10.30;100.00
20115;BME280;10218;42.874;25.320;2023-02-10T00:53:39;99280.88;;;-10.33;100.00
20115;BME280;10218;42.874;25.320;2023-02-10T00:56:08;99273.12;;;-10.30;100.00
20115;BME280;10218;42.874;25.320;2023-02-10T00:58:36;99286.94;;;-10.13;100.00
20115;BME280;10218;42.874;25.320;2023-02-10T01:01:04;99290.38;;;-10.32;100.00
20115;BME280;10218;42.874;25.320;2023-02-10T01:03:33;99285.00;;;-10.68;100.00
20115;BME280;10218;42.874;25.320;2023-02-10T01:06:02;99293.66;;;-10.59;100.00
20115;BME280;10218;42.874;25.320;2023-02-10T01:08:29;99294.53;;;-10.57;100.00
20115;BME280;10218;42.874;25.320;2023-02-10T01:11:05;99295.25;;;-10.79;100.00
20115;BME280;10218;42.874;25.320;2023-02-10T01:13:37;99300.41;;;-10.84;100.00
20115;BME280;10218;42.874;25.320;2023-02-10T01:16:06;99298.75;;;-10.72;100.00
20115;BME280;10218;42.874;25.320;2023-02-10T01:18:38;99285.81;;;-10.74;100.00
20115;BME280;10218;42.874;25.320;2023-02-10T01:21:11;99288.44;;;-10.72;100.00
20115;BME280;10218;42.874;25.320;2023-02-10T01:23:39;99294.38;;;-10.87;100.00
20115;BME280;10218;42.874;25.320;2023-02-10T01:26:08;99300.44;;;-10.74;100.00
20115;BME280;10218;42.874;25.320;2023-02-10T01:28:36;99297.75;;;-10.93;100.00
20115;BME280;10218;42.874;25.320;2023-02-10T01:31:09;99289.22;;;-10.79;100.00
20115;BME280;10218;42.874;25.320;2023-02-10T01:33:37;99293.41;;;-10.97;100.00
20115;BME280;10218;42.874;25.320;2023-02-10T01:36:06;99276.81;;;-11.31;100.00
20115;BME280;10218;42.874;25.320;2023-02-10T01:38:33;99300.34;;;-10.90;100.00
20115;BME280;10218;42.874;25.320;2023-02-10T01:41:02;99294.25;;;-11.04;100.00
20115;BME280;10218;42.874;25.320;2023-02-10T01:43:32;99300.31;;;-10.94;100.00
20115;BME280;10218;42.874;25.320;2023-02-10T01:45:59;99292.56;;;-10.99;100.00
20115;BME280;10218;42.874;25.320;2023-02-10T01:48:27;99285.56;;;-11.12;100.00
20115;BME280;10218;42.874;25.320;2023-02-10T01:51:00;99285.59;;;-11.09;100.00
20115;BME280;10218;42.874;25.320;2023-02-10T01:53:29;99284.06;;;-10.82;100.00
20115;BME280;10218;42.874;25.320;2023-02-10T01:56:01;99288.25;;;-10.97;100.00
20115;BME280;10218;42.874;25.320;2023-02-10T01:58:31;99276.94;;;-11.18;100.00
20115;BME280;10218;42.874;25.320;2023-02-10T02:01:00;99284.75;;;-11.08;100.00
20115;BME280;10218;42.874;25.320;2023-02-10T02:03:28;99288.81;;;-11.36;100.00
20115;BME280;10218;42.874;25.320;2023-02-10T02:05:56;99283.63;;;-11.37;100.00
20115;BME280;10218;42.874;25.320;2023-02-10T02:08:24;99264.63;;;-11.50;100.00
20115;BME280;10218;42.874;25.320;2023-02-10T02:11:07;99273.12;;;-11.61;100.00
20115;BME280;10218;42.874;25.320;2023-02-10T02:22:10;99275.31;;;-11.04;100.00
20115;BME280;10218;42.874;25.320;2023-02-10T02:33:43;99272.34;;;-11.51;100.00
20115;BME280;10218;42.874;25.320;2023-02-10T02:36:26;99271.63;;;-11.38;100.00
20115;BME280;10218;42.874;25.320;2023-02-10T02:39:03;99275.94;;;-11.34;100.00
20115;BME280;10218;42.874;25.320;2023-02-10T02:41:32;99266.28;;;-11.58;100.00
20115;BME280;10218;42.874;25.320;2023-02-10T02:44:03;99276.66;;;-11.50;100.00
20115;BME280;10218;42.874;25.320;2023-02-10T02:46:42;99261.13;;;-11.59;100.00
20115;BME280;10218;42.874;25.320;2023-02-10T02:54:34;99254.59;;;-11.12;100.00
20115;BME280;10218;42.874;25.320;2023-02-10T02:57:21;99251.06;;;-11.26;100.00
20115;BME280;10218;42.874;25.320;2023-02-10T03:00:05;99250.31;;;-11.13;100.00
20115;BME280;10218;42.874;25.320;2023-02-10T03:02:37;99256.31;;;-11.11;100.00
20115;BME280;10218;42.874;25.320;2023-02-10T03:05:09;99244.34;;;-11.00;100.00
20115;BME280;10218;42.874;25.320;2023-02-10T03:07:36;99246.78;;;-11.24;100.00
20115;BME280;10218;42.874;25.320;2023-02-10T03:10:05;99249.00;;;-11.70;100.00
20115;BME280;10218;42.874;25.320;2023-02-10T03:12:32;99236.94;;;-11.75;100.00
20115;BME280;10218;42.874;25.320;2023-02-10T03:15:00;99233.38;;;-11.86;100.00
20115;BME280;10218;42.874;25.320;2023-02-10T03:17:27;99232.38;;;-12.02;100.00
20115;BME280;10218;42.874;25.320;2023-02-10T03:19:54;99228.88;;;-12.07;100.00
20115;BME280;10218;42.874;25.320;2023-02-10T03:22:21;99236.00;;;-11.85;100.00
20115;BME280;10218;42.874;25.320;2023-02-10T03:24:48;99228.25;;;-11.86;100.00
20115;BME280;10218;42.874;25.320;2023-02-10T03:27:16;99225.47;;;-12.06;100.00
20115;BME280;10218;42.874;25.320;2023-02-10T03:29:44;99213.44;;;-12.05;100.00
20115;BME280;10218;42.874;25.320;2023-02-10T03:32:11;99214.53;;;-11.81;100.00
20115;BME280;10218;42.874;25.320;2023-02-10T03:34:38;99214.59;;;-11.75;100.00
20115;BME280;10218;42.874;25.320;2023-02-10T03:37:05;99210.44;;;-11.54;100.00
20115;BME280;10218;42.874;25.320;2023-02-10T03:39:32;99184.72;;;-11.45;100.00
20115;BME280;10218;42.874;25.320;2023-02-10T03:42:01;99183.03;;;-11.37;100.00
20115;BME280;10218;42.874;25.320;2023-02-10T03:44:28;99195.03;;;-11.45;100.00
20115;BME280;10218;42.874;25.320;2023-02-10T03:46:56;99171.38;;;-12.06;100.00
20115;BME280;10218;42.874;25.320;2023-02-10T03:49:23;99193.87;;;-11.87;100.00
20115;BME280;10218;42.874;25.320;2023-02-10T03:51:50;99166.34;;;-11.91;100.00
20115;BME280;10218;42.874;25.320;2023-02-10T03:54:17;99186.41;;;-11.50;100.00
20115;BME280;10218;42.874;25.320;2023-02-10T03:56:44;99174.22;;;-11.70;100.00
20115;BME280;10218;42.874;25.320;2023-02-10T03:59:14;99169.97;;;-11.64;100.00
20115;BME280;10218;42.874;25.320;2023-02-10T04:01:42;99181.06;;;-11.72;100.00
20115;BME280;10218;42.874;25.320;2023-02-10T04:04:09;99182.16;;;-11.41;100.00
20115;BME280;10218;42.874;25.320;2023-02-10T04:06:36;99184.34;;;-11.92;100.00
20115;BME280;10218;42.874;25.320;2023-02-10T04:09:04;99152.50;;;-9.22;100.00
20115;BME280;10218;42.874;25.320;2023-02-10T04:11:31;99142.22;;;-10.07;100.00
20115;BME280;10218;42.874;25.320;2023-02-10T04:13:58;99164.63;;;-9.97;100.00
20115;BME280;10218;42.874;25.320;2023-02-10T04:16:25;99161.00;;;-10.76;100.00
20115;BME280;10218;42.874;25.320;2023-02-10T04:18:57;99163.75;;;-10.29;100.00
20115;BME280;10218;42.874;25.320;2023-02-10T04:21:24;99156.78;;;-9.13;100.00
20115;BME280;10218;42.874;25.320;2023-02-10T04:23:52;99162.69;;;-10.81;100.00
20115;BME280;10218;42.874;25.320;2023-02-10T04:26:22;99167.78;;;-10.96;100.00
20115;BME280;10218;42.874;25.320;2023-02-10T04:28:49;99169.38;;;-11.21;100.00
20115;BME280;10218;42.874;25.320;2023-02-10T04:31:16;99166.69;;;-11.44;100.00
20115;BME280;10218;42.874;25.320;2023-02-10T04:33:44;99169.00;;;-11.82;100.00
20115;BME280;10218;42.874;25.320;2023-02-10T04:36:11;99160.56;;;-11.59;100.00
20115;BME280;10218;42.874;25.320;2023-02-10T04:38:39;99156.88;;;-11.95;100.00
20115;BME280;10218;42.874;25.320;2023-02-10T04:41:07;99161.19;;;-11.88;100.00
20115;BME280;10218;42.874;25.320;2023-02-10T04:43:34;99156.94;;;-11.83;100.00
20115;BME280;10218;42.874;25.320;2023-02-10T04:46:01;99166.75;;;-11.33;100.00
20115;BME280;10218;42.874;25.320;2023-02-10T04:48:31;99152.66;;;-11.84;100.00
20115;BME280;10218;42.874;25.320;2023-02-10T04:50:58;99156.56;;;-12.27;100.00
20115;BME280;10218;42.874;25.320;2023-02-10T04:53:25;99163.47;;;-12.24;100.00
20115;BME280;10218;42.874;25.320;2023-02-10T04:55:53;99161.97;;;-11.98;100.00
20115;BME280;10218;42.874;25.320;2023-02-10T04:58:21;99164.66;;;-11.86;100.00
20115;BME280;10218;42.874;25.320;2023-02-10T05:00:49;99160.34;;;-11.87;100.00
20115;BME280;10218;42.874;25.320;2023-02-10T05:03:17;99160.50;;;-11.68;100.00
20115;BME280;10218;42.874;25.320;2023-02-10T05:05:44;99169.91;;;-11.68;100.00
20115;BME280;10218;42.874;25.320;2023-02-10T05:08:11;99166.03;;;-12.23;100.00
20115;BME280;10218;42.874;25.320;2023-02-10T05:10:39;99168.59;;;-12.26;100.00
20115;BME280;10218;42.874;25.320;2023-02-10T05:13:07;99174.84;;;-12.01;100.00
20115;BME280;10218;42.874;25.320;2023-02-10T05:15:35;99171.41;;;-12.01;100.00
20115;BME280;10218;42.874;25.320;2023-02-10T05:18:02;99173.13;;;-12.02;100.00
20115;BME280;10218;42.874;25.320;2023-02-10T05:20:30;99140.03;;;-12.50;100.00
20115;BME280;10218;42.874;25.320;2023-02-10T05:22:57;99179.28;;;-11.85;100.00
20115;BME280;10218;42.874;25.320;2023-02-10T05:25:25;99186.00;;;-12.02;100.00
20115;BME280;10218;42.874;25.320;2023-02-10T05:27:53;99183.13;;;-12.32;100.00
20115;BME280;10218;42.874;25.320;2023-02-10T05:30:20;99186.75;;;-12.15;100.00
20115;BME280;10218;42.874;25.320;2023-02-10T05:32:47;99197.03;;;-12.15;100.00
20115;BME280;10218;42.874;25.320;2023-02-10T05:35:15;99197.16;;;-12.01;100.00
20115;BME280;10218;42.874;25.320;2023-02-10T05:37:42;99203.47;;;-11.64;100.00
20115;BME280;10218;42.874;25.320;2023-02-10T05:40:09;99192.19;;;-11.85;100.00
20115;BME280;10218;42.874;25.320;2023-02-10T05:42:37;99196.22;;;-12.11;100.00
20115;BME280;10218;42.874;25.320;2023-02-10T05:45:04;99201.47;;;-12.00;100.00
20115;BME280;10218;42.874;25.320;2023-02-10T05:47:31;99201.47;;;-12.02;100.00
20115;BME280;10218;42.874;25.320;2023-02-10T05:49:58;99187.81;;;-11.92;100.00
20115;BME280;10218;42.874;25.320;2023-02-10T05:52:25;99200.00;;;-11.70;100.00
20115;BME280;10218;42.874;25.320;2023-02-10T05:54:53;99199.97;;;-11.79;100.00
20115;BME280;10218;42.874;25.320;2023-02-10T05:57:20;99193.66;;;-12.11;100.00
20115;BME280;10218;42.874;25.320;2023-02-10T05:59:47;99198.13;;;-11.92;100.00
20115;BME280;10218;42.874;25.320;2023-02-10T06:02:14;99198.84;;;-12.03;100.00
20115;BME280;10218;42.874;25.320;2023-02-10T06:04:42;99196.44;;;-11.87;100.00
20115;BME280;10218;42.874;25.320;2023-02-10T06:07:09;99197.34;;;-11.85;100.00
20115;BME280;10218;42.874;25.320;2023-02-10T06:09:36;99194.75;;;-11.85;100.00
20115;BME280;10218;42.874;25.320;2023-02-10T06:12:06;99203.44;;;-11.74;100.00
20115;BME280;10218;42.874;25.320;2023-02-10T06:14:33;99204.12;;;-11.91;100.00
20115;BME280;10218;42.874;25.320;2023-02-10T06:17:00;99215.22;;;-11.98;100.00
20115;BME280;10218;42.874;25.320;2023-02-10T06:19:28;99199.84;;;-11.88;100.00
20115;BME280;10218;42.874;25.320;2023-02-10T06:21:55;99210.69;;;-11.22;100.00
20115;BME280;10218;42.874;25.320;2023-02-10T06:24:22;99216.53;;;-11.48;100.00
20115;BME280;10218;42.874;25.320;2023-02-10T06:26:50;99210.50;;;-11.42;100.00
20115;BME280;10218;42.874;25.320;2023-02-10T06:29:17;99207.09;;;-11.41;100.00
20115;BME280;10218;42.874;25.320;2023-02-10T06:31:44;99203.88;;;-11.10;100.00
20115;BME280;10218;42.874;25.320;2023-02-10T06:34:13;99201.47;;;-10.73;100.00
20115;BME280;10218;42.874;25.320;2023-02-10T06:36:40;99201.44;;;-10.76;100.00
20115;BME280;10218;42.874;25.320;2023-02-10T06:39:07;99203.97;;;-10.90;100.00
20115;BME280;10218;42.874;25.320;2023-02-10T06:41:34;99219.53;;;-10.82;100.00
20115;BME280;10218;42.874;25.320;2023-02-10T06:44:01;99206.81;;;-10.10;100.00
20115;BME280;10218;42.874;25.320;2023-02-10T06:46:29;99221.44;;;-10.36;100.00
20115;BME280;10218;42.874;25.320;2023-02-10T06:48:56;99214.66;;;-9.61;100.00
20115;BME280;10218;42.874;25.320;2023-02-10T06:51:23;99224.09;;;-10.01;100.00
20115;BME280;10218;42.874;25.320;2023-02-10T06:53:50;99227.59;;;-9.22;100.00
20115;BME280;10218;42.874;25.320;2023-02-10T06:56:17;99228.41;;;-8.98;100.00
20115;BME280;10218;42.874;25.320;2023-02-10T06:58:44;99229.22;;;-7.24;94.96
20115;BME280;10218;42.874;25.320;2023-02-10T07:01:15;99233.28;;;-8.13;97.85
20115;BME280;10218;42.874;25.320;2023-02-10T07:03:44;99235.62;;;-7.68;100.00
20115;BME280;10218;42.874;25.320;2023-02-10T07:06:14;99219.06;;;-6.62;87.54
20115;BME280;10218;42.874;25.320;2023-02-10T07:08:42;99226.34;;;-5.58;70.48
20115;BME280;10218;42.874;25.320;2023-02-10T07:11:10;99219.31;;;-5.53;61.10
20115;BME280;10218;42.874;25.320;2023-02-10T07:13:37;99226.88;;;-3.97;58.93
20115;BME280;10218;42.874;25.320;2023-02-10T07:16:04;99215.72;;;-4.46;58.12
20115;BME280;10218;42.874;25.320;2023-02-10T07:18:32;99214.38;;;-3.81;56.34
20115;BME280;10218;42.874;25.320;2023-02-10T07:20:59;99214.88;;;-3.30;54.15
20115;BME280;10218;42.874;25.320;2023-02-10T07:23:26;99230.75;;;-5.63;61.69
20115;BME280;10218;42.874;25.320;2023-02-10T07:26:04;99222.28;;;-5.76;79.06
20115;BME280;10218;42.874;25.320;2023-02-10T07:28:32;99235.38;;;-6.47;96.69
20115;BME280;10218;42.874;25.320;2023-02-10T07:31:00;99238.91;;;-6.52;100.00
20115;BME280;10218;42.874;25.320;2023-02-10T07:33:27;99247.34;;;-6.34;95.28
20115;BME280;10218;42.874;25.320;2023-02-10T07:35:59;99240.53;;;-5.79;93.00
20115;BME280;10218;42.874;25.320;2023-02-10T07:38:27;99235.66;;;-5.43;87.97
20115;BME280;10218;42.874;25.320;2023-02-10T07:40:55;99238.75;;;-5.75;95.93
20115;BME280;10218;42.874;25.320;2023-02-10T07:43:23;99236.31;;;-5.29;90.48
20115;BME280;10218;42.874;25.320;2023-02-10T07:45:50;99228.53;;;-4.80;80.62
20115;BME280;10218;42.874;25.320;2023-02-10T07:48:18;99226.50;;;-4.64;82.17
20115;BME280;10218;42.874;25.320;2023-02-10T07:50:46;99233.03;;;-4.01;70.59
20115;BME280;10218;42.874;25.320;2023-02-10T07:53:14;99228.69;;;-4.00;68.51
20115;BME280;10218;42.874;25.320;2023-02-10T07:55:41;99228.88;;;-2.95;64.46
20115;BME280;10218;42.874;25.320;2023-02-10T07:58:08;99234.34;;;-3.80;63.84
20115;BME280;10218;42.874;25.320;2023-02-10T08:00:35;99221.69;;;-2.87;62.90
20115;BME280;10218;42.874;25.320;2023-02-10T08:03:03;99227.28;;;-1.76;57.89
20115;BME280;10218;42.874;25.320;2023-02-10T08:05:31;99215.97;;;-2.07;57.72
20115;BME280;10218;42.874;25.320;2023-02-10T08:07:58;99220.88;;;-1.95;55.04
20115;BME280;10218;42.874;25.320;2023-02-10T08:10:26;99226.09;;;-2.57;57.07
20115;BME280;10218;42.874;25.320;2023-02-10T08:12:53;99220.78;;;-1.63;56.83
20115;BME280;10218;42.874;25.320;2023-02-10T08:15:21;99208.34;;;-1.02;54.72
20115;BME280;10218;42.874;25.320;2023-02-10T08:17:49;99211.16;;;-1.08;54.23
20115;BME280;10218;42.874;25.320;2023-02-10T08:20:16;99201.53;;;-1.08;55.07
20115;BME280;10218;42.874;25.320;2023-02-10T08:22:43;99204.53;;;-0.67;54.52
20115;BME280;10218;42.874;25.320;2023-02-10T08:25:11;99197.38;;;-0.39;54.23
20115;BME280;10218;42.874;25.320;2023-02-10T08:27:38;99199.88;;;-0.86;53.48
20115;BME280;10218;42.874;25.320;2023-02-10T08:30:05;99202.50;;;0.79;51.59
20115;BME280;10218;42.874;25.320;2023-02-10T08:32:32;99209.44;;;0.36;50.38
20115;BME280;10218;42.874;25.320;2023-02-10T08:34:59;99206.25;;;1.15;50.53
20115;BME280;10218;42.874;25.320;2023-02-10T08:37:26;99213.81;;;1.23;51.14
20115;BME280;10218;42.874;25.320;2023-02-10T08:39:54;99207.38;;;2.28;47.99
20115;BME280;10218;42.874;25.320;2023-02-10T08:42:21;99205.34;;;1.77;47.59
20115;BME280;10218;42.874;25.320;2023-02-10T08:44:48;99197.72;;;3.00;45.93
20115;BME280;10218;42.874;25.320;2023-02-10T08:47:15;99198.97;;;3.79;45.23
20115;BME280;10218;42.874;25.320;2023-02-10T08:49:42;99188.41;;;4.59;42.92
20115;BME280;10218;42.874;25.320;2023-02-10T08:52:10;99181.53;;;5.18;41.83
20115;BME280;10218;42.874;25.320;2023-02-10T08:54:38;99175.97;;;5.81;40.86
20115;BME280;10218;42.874;25.320;2023-02-10T08:57:05;99176.41;;;5.59;41.54
20115;BME280;10218;42.874;25.320;2023-02-10T08:59:32;99167.31;;;5.19;39.84
20115;BME280;10218;42.874;25.320;2023-02-10T09:01:59;99170.81;;;8.32;36.16
20115;BME280;10218;42.874;25.320;2023-02-10T09:04:26;99157.16;;;6.69;39.14
20115;BME280;10218;42.874;25.320;2023-02-10T09:06:53;99171.16;;;6.71;39.18
20115;BME280;10218;42.874;25.320;2023-02-10T09:09:22;99165.34;;;5.67;40.46
20115;BME280;10218;42.874;25.320;2023-02-10T09:11:53;99168.63;;;5.12;39.49
20115;BME280;10218;42.874;25.320;2023-02-10T09:14:22;99161.94;;;8.80;35.84
20115;BME280;10218;42.874;25.320;2023-02-10T09:16:50;99164.63;;;7.55;37.06
20115;BME280;10218;42.874;25.320;2023-02-10T09:19:18;99163.66;;;7.44;37.44
20115;BME280;10218;42.874;25.320;2023-02-10T09:21:47;99170.13;;;6.73;38.67
20115;BME280;10218;42.874;25.320;2023-02-10T09:24:15;99151.59;;;8.88;36.27
20115;BME280;10218;42.874;25.320;2023-02-10T09:26:43;99151.81;;;8.49;36.56
20115;BME280;10218;42.874;25.320;2023-02-10T09:29:10;99151.72;;;6.15;40.86
20115;BME280;10218;42.874;25.320;2023-02-10T09:31:39;99143.88;;;7.86;38.18
20115;BME280;10218;42.874;25.320;2023-02-10T09:34:06;99145.25;;;8.89;35.48
20115;BME280;10218;42.874;25.320;2023-02-10T09:36:34;99127.72;;;9.22;35.79
20115;BME280;10218;42.874;25.320;2023-02-10T09:39:01;99153.13;;;8.05;35.78
20115;BME280;10218;42.874;25.320;2023-02-10T09:55:15;99137.25;;;4.12;39.47
20115;BME280;10218;42.874;25.320;2023-02-10T09:57:51;99125.84;;;6.05;37.54
20115;BME280;10218;42.874;25.320;2023-02-10T10:00:23;99126.81;;;8.26;34.75
20115;BME280;10218;42.874;25.320;2023-02-10T10:02:54;99128.53;;;6.60;35.49
20115;BME280;10218;42.874;25.320;2023-02-10T10:08:16;99128.12;;;5.24;36.96
20115;BME280;10218;42.874;25.320;2023-02-10T10:10:45;99117.41;;;6.26;35.46
20115;BME280;10218;42.874;25.320;2023-02-10T10:13:19;99116.91;;;8.15;35.42
20115;BME280;10218;42.874;25.320;2023-02-10T10:18:41;99104.88;;;8.23;36.56
20115;BME280;10218;42.874;25.320;2023-02-10T10:21:26;99104.34;;;8.18;36.86
20115;BME280;10218;42.874;25.320;2023-02-10T10:24:10;99100.31;;;8.61;35.65
20115;BME280;10218;42.874;25.320;2023-02-10T10:35:14;99089.78;;;8.94;35.69
20115;BME280;10218;42.874;25.320;2023-02-10T10:37:42;99087.81;;;9.20;34.75
20115;BME280;10218;42.874;25.320;2023-02-10T10:40:21;99078.28;;;10.62;34.07
20115;BME280;10218;42.874;25.320;2023-02-10T10:42:53;99085.87;;;9.68;35.34
20115;BME280;10218;42.874;25.320;2023-02-10T10:48:00;99083.44;;;9.08;36.46
20115;BME280;10218;42.874;25.320;2023-02-10T10:50:32;99082.06;;;9.37;35.65
20115;BME280;10218;42.874;25.320;2023-02-10T10:53:03;99073.44;;;8.28;36.37
20115;BME280;10218;42.874;25.320;2023-02-10T10:55:37;99067.19;;;10.35;35.36
20115;BME280;10218;42.874;25.320;2023-02-10T10:58:27;99075.56;;;7.73;37.21
20115;BME280;10218;42.874;25.320;2023-02-10T11:01:00;99069.63;;;9.82;37.34
20115;BME280;10218;42.874;25.320;2023-02-10T11:03:28;99084.47;;;7.98;39.21
20115;BME280;10218;42.874;25.320;2023-02-10T11:11:14;99067.38;;;11.80;33.65
20115;BME280;10218;42.874;25.320;2023-02-10T11:14:01;99049.09;;;10.16;36.19
20115;BME280;10218;42.874;25.320;2023-02-10T11:16:40;99049.47;;;10.23;33.86
20115;BME280;10218;42.874;25.320;2023-02-10T11:19:23;99046.53;;;10.80;34.88
20115;BME280;10218;42.874;25.320;2023-02-10T11:21:51;99033.37;;;12.11;32.59
20115;BME280;10218;42.874;25.320;2023-02-10T11:24:27;99033.00;;;9.84;34.68
20115;BME280;10218;42.874;25.320;2023-02-10T11:27:14;99037.62;;;7.95;36.05
20115;BME280;10218;42.874;25.320;2023-02-10T11:29:56;99035.19;;;6.91;39.84
20115;BME280;10218;42.874;25.320;2023-02-10T11:32:26;99028.47;;;8.36;37.32
20115;BME280;10218;42.874;25.320;2023-02-10T11:34:56;99020.91;;;9.12;37.08
20115;BME280;10218;42.874;25.320;2023-02-10T11:37:31;99029.59;;;10.91;36.11
20115;BME280;10218;42.874;25.320;2023-02-10T11:40:04;99018.66;;;9.63;36.90
20115;BME280;10218;42.874;25.320;2023-02-10T11:42:33;99017.94;;;9.72;35.29
20115;BME280;10218;42.874;25.320;2023-02-10T11:45:29;99003.09;;;11.29;34.39
20115;BME280;10218;42.874;25.320;2023-02-10T11:48:19;99007.69;;;10.65;34.10
20115;BME280;10218;42.874;25.320;2023-02-10T11:50:47;99012.75;;;11.00;33.42
20115;BME280;10218;42.874;25.320;2023-02-10T11:53:24;99001.13;;;11.73;33.70
20115;BME280;10218;42.874;25.320;2023-02-10T11:55:59;99001.91;;;8.82;36.36
20115;BME280;10218;42.874;25.320;2023-02-10T11:58:40;99001.34;;;10.98;35.47
20115;BME280;10218;42.874;25.320;2023-02-10T12:04:40;98992.94;;;10.82;34.49
20115;BME280;10218;42.874;25.320;2023-02-10T12:19:16;98996.00;;;8.18;37.00
20115;BME280;10218;42.874;25.320;2023-02-10T12:22:03;98988.06;;;8.66;38.43
20115;BME280;10218;42.874;25.320;2023-02-10T12:25:01;98987.72;;;10.80;33.94
20115;BME280;10218;42.874;25.320;2023-02-10T12:30:38;98976.72;;;10.62;34.50
20115;BME280;10218;42.874;25.320;2023-02-10T12:36:08;98968.78;;;10.93;34.49
20115;BME280;10218;42.874;25.320;2023-02-10T12:38:50;98968.94;;;12.03;34.01
20115;BME280;10218;42.874;25.320;2023-02-10T12:41:27;98970.66;;;10.28;35.34
20115;BME280;10218;42.874;25.320;2023-02-10T12:44:08;98966.00;;;12.44;31.93
20115;BME280;10218;42.874;25.320;2023-02-10T12:52:18;98961.91;;;8.23;33.73
20115;BME280;10218;42.874;25.320;2023-02-10T12:57:40;98964.59;;;10.58;32.43
20115;BME280;10218;42.874;25.320;2023-02-10T13:00:21;98953.12;;;9.81;32.79
20115;BME280;10218;42.874;25.320;2023-02-10T13:03:32;98971.13;;;9.57;34.42
20115;BME280;10218;42.874;25.320;2023-02-10T13:06:44;98954.72;;;11.72;32.91
20115;BME280;10218;42.874;25.320;2023-02-10T13:08:58;98965.66;;;10.88;32.53
20115;BME280;10218;42.874;25.320;2023-02-10T13:14:34;98966.69;;;10.55;32.71
20115;BME280;10218;42.874;25.320;2023-02-10T13:17:02;98955.91;;;11.28;31.99
20115;BME280;10218;42.874;25.320;2023-02-10T13:25:15;98954.81;;;9.94;33.22
20115;BME280;10218;42.874;25.320;2023-02-10T13:28:12;98957.69;;;10.97;31.16
20115;BME280;10218;42.874;25.320;2023-02-10T13:33:45;98959.84;;;8.63;32.55
20115;BME280;10218;42.874;25.320;2023-02-10T13:36:23;98948.06;;;9.23;33.86
20115;BME280;10218;42.874;25.320;2023-02-10T13:39:17;98940.91;;;10.11;32.78
20115;BME280;10218;42.874;25.320;2023-02-10T13:41:47;98941.03;;;9.22;34.04
20115;BME280;10218;42.874;25.320;2023-02-10T13:44:27;98930.75;;;9.28;32.99
20115;BME280;10218;42.874;25.320;2023-02-10T13:49:38;98934.47;;;9.26;32.87
20115;BME280;10218;42.874;25.320;2023-02-10T13:52:21;98941.28;;;9.19;34.56
20115;BME280;10218;42.874;25.320;2023-02-10T13:57:38;98931.78;;;7.75;35.45
20115;BME280;10218;42.874;25.320;2023-02-10T14:02:39;98931.22;;;9.33;32.84
20115;BME280;10218;42.874;25.320;2023-02-10T14:05:26;98939.13;;;8.32;34.18
20115;BME280;10218;42.874;25.320;2023-02-10T14:07:53;98927.66;;;9.77;33.54
20115;BME280;10218;42.874;25.320;2023-02-10T14:12:55;98938.22;;;9.90;34.67
20115;BME280;10218;42.874;25.320;2023-02-10T14:15:29;98929.16;;;11.28;31.84
20115;BME280;10218;42.874;25.320;2023-02-10T14:18:26;98933.00;;;9.55;34.25
20115;BME280;10218;42.874;25.320;2023-02-10T14:20:57;98930.78;;;9.94;33.67
20115;BME280;10218;42.874;25.320;2023-02-10T14:23:27;98932.63;;;10.36;32.97
20115;BME280;10218;42.874;25.320;2023-02-10T14:25:58;98932.09;;;11.86;31.79
20115;BME280;10218;42.874;25.320;2023-02-10T14:28:35;98942.31;;;10.37;34.30
20115;BME280;10218;42.874;25.320;2023-02-10T14:31:15;98936.28;;;11.79;33.03
20115;BME280;10218;42.874;25.320;2023-02-10T14:33:53;98936.56;;;11.76;32.65
20115;BME280;10218;42.874;25.320;2023-02-10T14:36:22;98929.69;;;11.83;31.77
20115;BME280;10218;42.874;25.320;2023-02-10T14:38:54;98938.03;;;10.03;33.92
20115;BME280;10218;42.874;25.320;2023-02-10T14:41:23;98943.72;;;8.65;36.76
20115;BME280;10218;42.874;25.320;2023-02-10T14:43:51;98942.91;;;6.03;41.23
20115;BME280;10218;42.874;25.320;2023-02-10T14:46:25;98946.06;;;5.26;42.52
20115;BME280;10218;42.874;25.320;2023-02-10T14:49:00;98943.75;;;4.78;43.84
20115;BME280;10218;42.874;25.320;2023-02-10T14:51:29;98938.28;;;4.66;44.89